sensor_id;sensor_type;location;lat;lon;timestamp;temperature;humidity
6664;DHT22;58749;48.022;10.922;2022-11-04T00:01:48;11.10;99.90
6664;DHT22;58749;48.022;10.922;2022-11-04T00:04:19;11.10;99.90
6664;DHT22;58749;48.022;10.922;2022-11-04T00:06:48;11.00;99.90
6664;DHT22;58749;48.022;10.922;2022-11-04T00:09:18;10.90;99.90
6664;DHT22;58749;48.022;10.922;2022-11-04T00:11:47;10.90;99.90
6664;DHT22;58749;48.022;10.922;2022-11-04T00:14:33;10.80;99.90
6664;DHT22;58749;48.022;10.922;2022-11-04T00:17:02;10.70;99.90
6664;DHT22;58749;48.022;10.922;2022-11-04T00:19:50;10.70;99.90
6664;DHT22;58749;48.022;10.922;2022-11-04T00:22:37;10.70;99.90
6664;DHT22;58749;48.022;10.922;2022-11-04T00:25:23;10.50;99.90
6664;DHT22;58749;48.022;10.922;2022-11-04T00:28:10;10.60;99.90
6664;DHT22;58749;48.022;10.922;2022-11-04T00:30:57;10.70;99.90
6664;DHT22;58749;48.022;10.922;2022-11-04T00:33:47;10.60;99.90
6664;DHT22;58749;48.022;10.922;2022-11-04T00:36:16;10.60;99.90
6664;DHT22;58749;48.022;10.922;2022-11-04T00:38:44;10.50;99.90
6664;DHT22;58749;48.022;10.922;2022-11-04T00:41:12;10.50;99.90
6664;DHT22;58749;48.022;10.922;2022-11-04T00:43:54;10.60;99.90
6664;DHT22;58749;48.022;10.922;2022-11-04T00:46:23;10.50;99.90
6664;DHT22;58749;48.022;10.922;2022-11-04T00:48:51;10.50;99.90
6664;DHT22;58749;48.022;10.922;2022-11-04T00:51:21;10.40;99.90
6664;DHT22;58749;48.022;10.922;2022-11-04T00:53:49;10.40;99.90
6664;DHT22;58749;48.022;10.922;2022-11-04T00:56:17;10.30;99.90
6664;DHT22;58749;48.022;10.922;2022-11-04T00:58:45;10.30;99.90
6664;DHT22;58749;48.022;10.922;2022-11-04T01:01:16;10.10;99.90
6664;DHT22;58749;48.022;10.922;2022-11-04T01:03:46;10.10;99.90
6664;DHT22;58749;48.022;10.922;2022-11-04T01:06:15;10.20;99.90
6664;DHT22;58749;48.022;10.922;2022-11-04T01:08:45;10.20;99.90
6664;DHT22;58749;48.022;10.922;2022-11-04T01:11:14;10.20;99.90
6664;DHT22;58749;48.022;10.922;2022-11-04T01:13:42;10.20;99.90
6664;DHT22;58749;48.022;10.922;2022-11-04T01:16:11;10.20;99.90
6664;DHT22;58749;48.022;10.922;2022-11-04T01:18:40;10.10;99.90
6664;DHT22;58749;48.022;10.922;2022-11-04T01:21:10;10.00;99.90
6664;DHT22;58749;48.022;10.922;2022-11-04T01:23:40;10.00;99.90
6664;DHT22;58749;48.022;10.922;2022-11-04T01:26:13;9.90;99.90
6664;DHT22;58749;48.022;10.922;2022-11-04T01:28:41;9.90;99.90
6664;DHT22;58749;48.022;10.922;2022-11-04T01:31:11;9.80;99.90
6664;DHT22;58749;48.022;10.922;2022-11-04T01:33:39;9.80;99.90
6664;DHT22;58749;48.022;10.922;2022-11-04T01:36:11;9.90;99.90
6664;DHT22;58749;48.022;10.922;2022-11-04T01:38:41;9.90;99.90
6664;DHT22;58749;48.022;10.922;2022-11-04T01:41:16;9.90;99.90
6664;DHT22;58749;48.022;10.922;2022-11-04T01:43:48;9.90;99.90
6664;DHT22;58749;48.022;10.922;2022-11-04T01:46:24;9.90;99.90
6664;DHT22;58749;48.022;10.922;2022-11-04T01:48:57;9.90;99.90
6664;DHT22;58749;48.022;10.922;2022-11-04T01:51:28;9.90;99.90
6664;DHT22;58749;48.022;10.922;2022-11-04T01:54:00;9.90;99.90
6664;DHT22;58749;48.022;10.922;2022-11-04T01:56:30;9.90;99.90
6664;DHT22;58749;48.022;10.922;2022-11-04T01:59:03;9.90;99.90
6664;DHT22;58749;48.022;10.922;2022-11-04T02:01:32;9.90;99.90
6664;DHT22;58749;48.022;10.922;2022-11-04T02:04:01;9.90;99.90
6664;DHT22;58749;48.022;10.922;2022-11-04T02:06:43;9.80;99.90
6664;DHT22;58749;48.022;10.922;2022-11-04T02:09:12;9.80;99.90
6664;DHT22;58749;48.022;10.922;2022-11-04T02:11:42;9.90;99.90
6664;DHT22;58749;48.022;10.922;2022-11-04T02:14:28;9.90;99.90
6664;DHT22;58749;48.022;10.922;2022-11-04T02:17:03;9.90;99.90
6664;DHT22;58749;48.022;10.922;2022-11-04T02:19:54;9.90;99.90
6664;DHT22;58749;48.022;10.922;2022-11-04T02:31:37;10.00;99.90
6664;DHT22;58749;48.022;10.922;2022-11-04T02:34:12;10.00;99.90
6664;DHT22;58749;48.022;10.922;2022-11-04T02:36:49;10.00;99.90
6664;DHT22;58749;48.022;10.922;2022-11-04T02:39:24;10.10;99.90
6664;DHT22;58749;48.022;10.922;2022-11-04T02:41:59;10.00;99.90
6664;DHT22;58749;48.022;10.922;2022-11-04T02:44:28;10.10;99.90
6664;DHT22;58749;48.022;10.922;2022-11-04T02:47:02;10.10;99.90
6664;DHT22;58749;48.022;10.922;2022-11-04T02:49:35;10.10;99.90
6664;DHT22;58749;48.022;10.922;2022-11-04T02:52:08;10.10;99.90
6664;DHT22;58749;48.022;10.922;2022-11-04T02:54:40;10.00;99.90
6664;DHT22;58749;48.022;10.922;2022-11-04T02:57:11;9.90;99.90
6664;DHT22;58749;48.022;10.922;2022-11-04T02:59:45;10.00;99.90
6664;DHT22;58749;48.022;10.922;2022-11-04T03:02:18;9.90;99.90
6664;DHT22;58749;48.022;10.922;2022-11-04T03:04:51;9.80;99.90
6664;DHT22;58749;48.022;10.922;2022-11-04T03:07:24;9.80;99.90
6664;DHT22;58749;48.022;10.922;2022-11-04T03:09:59;9.80;99.90
6664;DHT22;58749;48.022;10.922;2022-11-04T03:12:33;9.70;99.90
6664;DHT22;58749;48.022;10.922;2022-11-04T03:15:06;9.90;99.90
6664;DHT22;58749;48.022;10.922;2022-11-04T03:17:40;9.80;99.90
6664;DHT22;58749;48.022;10.922;2022-11-04T03:20:14;9.90;99.90
6664;DHT22;58749;48.022;10.922;2022-11-04T03:22:44;10.00;99.90
6664;DHT22;58749;48.022;10.922;2022-11-04T03:25:12;9.90;99.90
6664;DHT22;58749;48.022;10.922;2022-11-04T03:27:44;10.00;99.90
6664;DHT22;58749;48.022;10.922;2022-11-04T03:30:17;9.90;99.90
6664;DHT22;58749;48.022;10.922;2022-11-04T03:32:54;9.90;99.90
6664;DHT22;58749;48.022;10.922;2022-11-04T03:35:25;9.90;99.90
6664;DHT22;58749;48.022;10.922;2022-11-04T03:37:54;9.80;99.90
6664;DHT22;58749;48.022;10.922;2022-11-04T03:40:24;9.90;99.90
6664;DHT22;58749;48.022;10.922;2022-11-04T03:42:55;9.80;99.90
6664;DHT22;58749;48.022;10.922;2022-11-04T03:45:25;9.90;99.90
6664;DHT22;58749;48.022;10.922;2022-11-04T03:47:55;9.90;99.90
6664;DHT22;58749;48.022;10.922;2022-11-04T03:50:27;9.90;99.90
6664;DHT22;58749;48.022;10.922;2022-11-04T03:52:56;9.90;99.90
6664;DHT22;58749;48.022;10.922;2022-11-04T03:55:32;9.80;99.90
6664;DHT22;58749;48.022;10.922;2022-11-04T03:58:08;9.90;99.90
6664;DHT22;58749;48.022;10.922;2022-11-04T04:00:40;9.80;99.90
6664;DHT22;58749;48.022;10.922;2022-11-04T04:03:15;9.80;99.90
6664;DHT22;58749;48.022;10.922;2022-11-04T04:05:50;9.90;99.90
6664;DHT22;58749;48.022;10.922;2022-11-04T04:08:28;9.80;99.90
6664;DHT22;58749;48.022;10.922;2022-11-04T04:11:04;9.80;99.90
6664;DHT22;58749;48.022;10.922;2022-11-04T04:13:39;9.90;99.90
6664;DHT22;58749;48.022;10.922;2022-11-04T04:16:12;9.90;99.90
6664;DHT22;58749;48.022;10.922;2022-11-04T04:18:47;9.90;99.90
6664;DHT22;58749;48.022;10.922;2022-11-04T04:21:26;9.90;99.90
6664;DHT22;58749;48.022;10.922;2022-11-04T04:23:57;9.90;99.90
6664;DHT22;58749;48.022;10.922;2022-11-04T04:26:44;9.90;99.90
6664;DHT22;58749;48.022;10.922;2022-11-04T04:29:31;9.90;99.90
6664;DHT22;58749;48.022;10.922;2022-11-04T04:31:59;10.00;99.90
6664;DHT22;58749;48.022;10.922;2022-11-04T04:34:31;10.00;99.90
6664;DHT22;58749;48.022;10.922;2022-11-04T04:37:06;9.90;99.90
6664;DHT22;58749;48.022;10.922;2022-11-04T04:39:40;9.90;99.90
6664;DHT22;58749;48.022;10.922;2022-11-04T04:42:30;9.80;99.90
6664;DHT22;58749;48.022;10.922;2022-11-04T04:45:20;9.70;99.90
6664;DHT22;58749;48.022;10.922;2022-11-04T04:47:50;9.80;99.90
6664;DHT22;58749;48.022;10.922;2022-11-04T04:50:20;9.80;99.90
6664;DHT22;58749;48.022;10.922;2022-11-04T04:52:50;9.80;99.90
6664;DHT22;58749;48.022;10.922;2022-11-04T04:55:19;9.70;99.90
6664;DHT22;58749;48.022;10.922;2022-11-04T04:57:48;9.70;99.90
6664;DHT22;58749;48.022;10.922;2022-11-04T05:00:18;9.90;99.90
6664;DHT22;58749;48.022;10.922;2022-11-04T05:02:47;9.90;99.90
6664;DHT22;58749;48.022;10.922;2022-11-04T05:05:16;10.00;99.90
6664;DHT22;58749;48.022;10.922;2022-11-04T05:07:45;9.90;99.90
6664;DHT22;58749;48.022;10.922;2022-11-04T05:10:14;9.90;99.90
6664;DHT22;58749;48.022;10.922;2022-11-04T05:12:43;9.90;99.90
6664;DHT22;58749;48.022;10.922;2022-11-04T05:15:30;9.80;99.90
6664;DHT22;58749;48.022;10.922;2022-11-04T05:17:59;9.90;99.90
6664;DHT22;58749;48.022;10.922;2022-11-04T05:20:28;9.80;99.90
6664;DHT22;58749;48.022;10.922;2022-11-04T05:23:01;9.80;99.90
6664;DHT22;58749;48.022;10.922;2022-11-04T05:25:29;9.80;99.90
6664;DHT22;58749;48.022;10.922;2022-11-04T05:27:59;9.60;99.90
6664;DHT22;58749;48.022;10.922;2022-11-04T05:30:27;9.70;99.90
6664;DHT22;58749;48.022;10.922;2022-11-04T05:32:56;9.70;99.90
6664;DHT22;58749;48.022;10.922;2022-11-04T05:35:30;9.60;99.90
6664;DHT22;58749;48.022;10.922;2022-11-04T05:37:58;9.60;99.90
6664;DHT22;58749;48.022;10.922;2022-11-04T05:40:28;9.60;99.90
6664;DHT22;58749;48.022;10.922;2022-11-04T05:42:57;9.60;99.90
6664;DHT22;58749;48.022;10.922;2022-11-04T05:45:25;9.40;99.90
6664;DHT22;58749;48.022;10.922;2022-11-04T05:47:57;9.50;99.90
6664;DHT22;58749;48.022;10.922;2022-11-04T05:50:26;9.70;99.90
6664;DHT22;58749;48.022;10.922;2022-11-04T05:52:55;9.60;99.90
6664;DHT22;58749;48.022;10.922;2022-11-04T05:55:23;9.60;99.90
6664;DHT22;58749;48.022;10.922;2022-11-04T05:57:53;9.50;99.90
6664;DHT22;58749;48.022;10.922;2022-11-04T06:00:23;9.30;99.90
6664;DHT22;58749;48.022;10.922;2022-11-04T06:02:52;9.30;99.90
6664;DHT22;58749;48.022;10.922;2022-11-04T06:05:23;9.30;99.90
6664;DHT22;58749;48.022;10.922;2022-11-04T06:07:51;9.40;99.90
6664;DHT22;58749;48.022;10.922;2022-11-04T06:10:19;9.40;99.90
6664;DHT22;58749;48.022;10.922;2022-11-04T06:12:47;9.30;99.90
6664;DHT22;58749;48.022;10.922;2022-11-04T06:15:17;9.20;99.90
6664;DHT22;58749;48.022;10.922;2022-11-04T06:17:45;9.00;99.90
6664;DHT22;58749;48.022;10.922;2022-11-04T06:20:13;9.00;99.90
6664;DHT22;58749;48.022;10.922;2022-11-04T06:22:42;8.90;99.90
6664;DHT22;58749;48.022;10.922;2022-11-04T06:25:10;9.10;99.90
6664;DHT22;58749;48.022;10.922;2022-11-04T06:27:38;9.20;99.90
6664;DHT22;58749;48.022;10.922;2022-11-04T06:30:08;9.00;99.90
6664;DHT22;58749;48.022;10.922;2022-11-04T06:32:38;9.00;99.90
6664;DHT22;58749;48.022;10.922;2022-11-04T06:35:06;9.00;99.90
6664;DHT22;58749;48.022;10.922;2022-11-04T06:37:35;8.90;99.90
6664;DHT22;58749;48.022;10.922;2022-11-04T06:40:04;8.90;99.90
6664;DHT22;58749;48.022;10.922;2022-11-04T06:42:32;9.00;99.90
6664;DHT22;58749;48.022;10.922;2022-11-04T06:45:00;9.00;99.90
6664;DHT22;58749;48.022;10.922;2022-11-04T06:47:28;9.20;99.90
6664;DHT22;58749;48.022;10.922;2022-11-04T06:49:58;9.30;99.90
6664;DHT22;58749;48.022;10.922;2022-11-04T06:52:26;9.30;99.90
6664;DHT22;58749;48.022;10.922;2022-11-04T06:54:54;9.50;99.90
6664;DHT22;58749;48.022;10.922;2022-11-04T06:57:22;9.40;99.90
6664;DHT22;58749;48.022;10.922;2022-11-04T06:59:50;9.20;99.90
6664;DHT22;58749;48.022;10.922;2022-11-04T07:02:19;9.10;99.90
6664;DHT22;58749;48.022;10.922;2022-11-04T07:04:47;9.10;99.90
6664;DHT22;58749;48.022;10.922;2022-11-04T07:07:18;9.20;99.90
6664;DHT22;58749;48.022;10.922;2022-11-04T07:09:46;9.20;99.90
6664;DHT22;58749;48.022;10.922;2022-11-04T07:12:15;9.10;99.90
6664;DHT22;58749;48.022;10.922;2022-11-04T07:14:43;9.00;99.90
6664;DHT22;58749;48.022;10.922;2022-11-04T07:17:11;9.10;99.90
6664;DHT22;58749;48.022;10.922;2022-11-04T07:19:39;9.10;99.90
6664;DHT22;58749;48.022;10.922;2022-11-04T07:22:07;8.90;99.90
6664;DHT22;58749;48.022;10.922;2022-11-04T07:24:36;8.90;99.90
6664;DHT22;58749;48.022;10.922;2022-11-04T07:27:05;8.80;99.90
6664;DHT22;58749;48.022;10.922;2022-11-04T07:29:33;8.80;99.90
6664;DHT22;58749;48.022;10.922;2022-11-04T07:32:03;8.90;99.90
6664;DHT22;58749;48.022;10.922;2022-11-04T07:34:31;8.80;99.90
6664;DHT22;58749;48.022;10.922;2022-11-04T07:36:59;8.90;99.90
6664;DHT22;58749;48.022;10.922;2022-11-04T07:39:27;9.10;99.90
6664;DHT22;58749;48.022;10.922;2022-11-04T07:41:57;9.10;99.90
6664;DHT22;58749;48.022;10.922;2022-11-04T07:44:25;9.10;99.90
6664;DHT22;58749;48.022;10.922;2022-11-04T07:46:53;9.00;99.90
6664;DHT22;58749;48.022;10.922;2022-11-04T07:49:22;9.10;99.90
6664;DHT22;58749;48.022;10.922;2022-11-04T07:51:51;9.20;99.90
6664;DHT22;58749;48.022;10.922;2022-11-04T07:54:19;9.30;99.90
6664;DHT22;58749;48.022;10.922;2022-11-04T07:56:47;9.40;99.90
6664;DHT22;58749;48.022;10.922;2022-11-04T07:59:16;9.40;99.90
6664;DHT22;58749;48.022;10.922;2022-11-04T08:01:44;9.40;99.90
6664;DHT22;58749;48.022;10.922;2022-11-04T08:04:12;9.30;99.90
6664;DHT22;58749;48.022;10.922;2022-11-04T08:06:49;9.20;99.90
6664;DHT22;58749;48.022;10.922;2022-11-04T08:09:30;9.10;99.90
6664;DHT22;58749;48.022;10.922;2022-11-04T08:12:27;9.10;99.90
6664;DHT22;58749;48.022;10.922;2022-11-04T08:14:59;9.10;99.90
6664;DHT22;58749;48.022;10.922;2022-11-04T08:17:28;9.20;99.90
6664;DHT22;58749;48.022;10.922;2022-11-04T08:19:56;9.20;99.90
6664;DHT22;58749;48.022;10.922;2022-11-04T08:22:24;9.30;99.90
6664;DHT22;58749;48.022;10.922;2022-11-04T08:24:58;9.40;99.90
6664;DHT22;58749;48.022;10.922;2022-11-04T08:27:27;9.30;99.90
6664;DHT22;58749;48.022;10.922;2022-11-04T08:29:55;9.20;99.90
6664;DHT22;58749;48.022;10.922;2022-11-04T08:32:24;9.30;99.90
6664;DHT22;58749;48.022;10.922;2022-11-04T08:34:52;9.40;99.90
6664;DHT22;58749;48.022;10.922;2022-11-04T08:37:20;9.30;99.90
6664;DHT22;58749;48.022;10.922;2022-11-04T08:39:48;9.30;99.90
6664;DHT22;58749;48.022;10.922;2022-11-04T08:42:17;9.40;99.90
6664;DHT22;58749;48.022;10.922;2022-11-04T08:44:45;9.50;99.90
6664;DHT22;58749;48.022;10.922;2022-11-04T08:47:15;9.50;99.90
6664;DHT22;58749;48.022;10.922;2022-11-04T08:49:45;9.60;99.90
6664;DHT22;58749;48.022;10.922;2022-11-04T08:52:13;9.70;99.90
6664;DHT22;58749;48.022;10.922;2022-11-04T08:54:41;9.80;99.90
6664;DHT22;58749;48.022;10.922;2022-11-04T08:57:10;9.90;99.90
6664;DHT22;58749;48.022;10.922;2022-11-04T08:59:38;10.00;99.90
6664;DHT22;58749;48.022;10.922;2022-11-04T09:02:08;10.10;99.90
6664;DHT22;58749;48.022;10.922;2022-11-04T09:04:38;10.10;99.90
6664;DHT22;58749;48.022;10.922;2022-11-04T09:07:07;10.10;99.90
6664;DHT22;58749;48.022;10.922;2022-11-04T09:09:36;10.00;99.90
6664;DHT22;58749;48.022;10.922;2022-11-04T09:12:08;9.90;99.90
6664;DHT22;58749;48.022;10.922;2022-11-04T09:14:36;9.90;99.90
6664;DHT22;58749;48.022;10.922;2022-11-04T09:17:04;9.90;99.90
6664;DHT22;58749;48.022;10.922;2022-11-04T09:19:32;9.90;99.90
6664;DHT22;58749;48.022;10.922;2022-11-04T09:22:07;9.90;99.90
6664;DHT22;58749;48.022;10.922;2022-11-04T09:24:36;9.90;99.90
6664;DHT22;58749;48.022;10.922;2022-11-04T09:27:04;9.90;99.90
6664;DHT22;58749;48.022;10.922;2022-11-04T09:29:32;10.00;99.90
6664;DHT22;58749;48.022;10.922;2022-11-04T09:32:02;10.10;99.90
6664;DHT22;58749;48.022;10.922;2022-11-04T09:34:30;10.30;99.90
6664;DHT22;58749;48.022;10.922;2022-11-04T09:36:59;10.30;99.90
6664;DHT22;58749;48.022;10.922;2022-11-04T09:39:29;10.40;99.90
6664;DHT22;58749;48.022;10.922;2022-11-04T09:42:06;10.40;99.90
6664;DHT22;58749;48.022;10.922;2022-11-04T09:44:47;10.40;99.90
6664;DHT22;58749;48.022;10.922;2022-11-04T09:47:38;10.30;99.90
6664;DHT22;58749;48.022;10.922;2022-11-04T09:50:13;10.10;99.90
6664;DHT22;58749;48.022;10.922;2022-11-04T09:52:47;10.00;99.90
6664;DHT22;58749;48.022;10.922;2022-11-04T09:55:23;9.90;99.90
6664;DHT22;58749;48.022;10.922;2022-11-04T09:57:54;9.90;99.90
6664;DHT22;58749;48.022;10.922;2022-11-04T10:00:24;9.90;99.90
6664;DHT22;58749;48.022;10.922;2022-11-04T10:03:00;9.80;99.90
6664;DHT22;58749;48.022;10.922;2022-11-04T10:05:48;9.90;99.90
6664;DHT22;58749;48.022;10.922;2022-11-04T10:08:36;9.90;99.90
6664;DHT22;58749;48.022;10.922;2022-11-04T10:11:12;9.90;99.90
6664;DHT22;58749;48.022;10.922;2022-11-04T10:13:53;9.90;99.90
6664;DHT22;58749;48.022;10.922;2022-11-04T10:16:34;10.00;99.90
6664;DHT22;58749;48.022;10.922;2022-11-04T10:19:24;10.10;99.90
6664;DHT22;58749;48.022;10.922;2022-11-04T10:22:02;10.20;99.90
6664;DHT22;58749;48.022;10.922;2022-11-04T10:24:39;10.20;99.90
6664;DHT22;58749;48.022;10.922;2022-11-04T10:27:15;10.20;99.90
6664;DHT22;58749;48.022;10.922;2022-11-04T10:29:46;10.20;99.90
6664;DHT22;58749;48.022;10.922;2022-11-04T10:32:18;10.40;99.90
6664;DHT22;58749;48.022;10.922;2022-11-04T10:34:52;10.50;99.90
6664;DHT22;58749;48.022;10.922;2022-11-04T10:37:23;10.50;99.90
6664;DHT22;58749;48.022;10.922;2022-11-04T10:39:58;10.50;99.90
6664;DHT22;58749;48.022;10.922;2022-11-04T10:42:28;10.60;99.90
6664;DHT22;58749;48.022;10.922;2022-11-04T10:44:56;10.60;99.90
6664;DHT22;58749;48.022;10.922;2022-11-04T10:47:36;10.60;99.90
6664;DHT22;58749;48.022;10.922;2022-11-04T10:50:29;10.60;99.90
6664;DHT22;58749;48.022;10.922;2022-11-04T10:53:10;10.70;99.90
6664;DHT22;58749;48.022;10.922;2022-11-04T10:55:44;10.90;99.90
6664;DHT22;58749;48.022;10.922;2022-11-04T10:58:20;11.00;99.90
6664;DHT22;58749;48.022;10.922;2022-11-04T11:00:50;11.10;99.90
6664;DHT22;58749;48.022;10.922;2022-11-04T11:03:25;11.20;99.90
6664;DHT22;58749;48.022;10.922;2022-11-04T11:06:13;11.10;99.90
6664;DHT22;58749;48.022;10.922;2022-11-04T11:08:42;11.00;99.90
6664;DHT22;58749;48.022;10.922;2022-11-04T11:11:12;11.00;99.90
6664;DHT22;58749;48.022;10.922;2022-11-04T11:13:44;11.00;99.90
6664;DHT22;58749;48.022;10.922;2022-11-04T11:16:17;11.00;99.90
6664;DHT22;58749;48.022;10.922;2022-11-04T11:19:08;11.00;99.90
6664;DHT22;58749;48.022;10.922;2022-11-04T11:21:42;11.00;99.90
6664;DHT22;58749;48.022;10.922;2022-11-04T11:24:17;11.00;99.90
6664;DHT22;58749;48.022;10.922;2022-11-04T11:26:47;11.00;99.90
6664;DHT22;58749;48.022;10.922;2022-11-04T11:29:22;11.00;99.90
6664;DHT22;58749;48.022;10.922;2022-11-04T11:31:52;10.90;99.90
6664;DHT22;58749;48.022;10.922;2022-11-04T11:34:23;11.00;99.90
6664;DHT22;58749;48.022;10.922;2022-11-04T11:36:54;11.00;99.90
6664;DHT22;58749;48.022;10.922;2022-11-04T11:39:25;11.00;99.90
6664;DHT22;58749;48.022;10.922;2022-11-04T11:41:57;11.00;99.90
6664;DHT22;58749;48.022;10.922;2022-11-04T11:44:29;11.00;99.90
6664;DHT22;58749;48.022;10.922;2022-11-04T11:47:19;10.90;99.90
6664;DHT22;58749;48.022;10.922;2022-11-04T11:50:05;10.90;99.90
6664;DHT22;58749;48.022;10.922;2022-11-04T11:52:34;10.80;99.90
6664;DHT22;58749;48.022;10.922;2022-11-04T11:55:08;10.80;99.90
6664;DHT22;58749;48.022;10.922;2022-11-04T11:57:49;10.80;99.90
6664;DHT22;58749;48.022;10.922;2022-11-04T12:00:45;10.90;99.90
6664;DHT22;58749;48.022;10.922;2022-11-04T12:03:26;10.90;99.90
6664;DHT22;58749;48.022;10.922;2022-11-04T12:06:32;11.00;99.90
6664;DHT22;58749;48.022;10.922;2022-11-04T12:09:30;11.00;99.90
6664;DHT22;58749;48.022;10.922;2022-11-04T12:12:15;11.10;99.90
6664;DHT22;58749;48.022;10.922;2022-11-04T12:14:54;11.10;99.90
6664;DHT22;58749;48.022;10.922;2022-11-04T12:17:38;11.20;99.90
6664;DHT22;58749;48.022;10.922;2022-11-04T12:20:20;11.20;99.90
6664;DHT22;58749;48.022;10.922;2022-11-04T12:22:57;11.20;99.90
6664;DHT22;58749;48.022;10.922;2022-11-04T12:25:33;11.30;99.90
6664;DHT22;58749;48.022;10.922;2022-11-04T12:28:13;11.30;99.90
6664;DHT22;58749;48.022;10.922;2022-11-04T12:30:55;11.30;99.90
6664;DHT22;58749;48.022;10.922;2022-11-04T12:33:34;11.30;99.90
6664;DHT22;58749;48.022;10.922;2022-11-04T12:36:15;11.40;99.90
6664;DHT22;58749;48.022;10.922;2022-11-04T12:38:59;11.40;99.90
6664;DHT22;58749;48.022;10.922;2022-11-04T12:41:40;11.40;99.90
6664;DHT22;58749;48.022;10.922;2022-11-04T12:44:31;11.30;99.90
6664;DHT22;58749;48.022;10.922;2022-11-04T12:47:11;11.40;99.90
6664;DHT22;58749;48.022;10.922;2022-11-04T12:50:14;11.40;99.90
6664;DHT22;58749;48.022;10.922;2022-11-04T12:53:04;11.30;99.90
6664;DHT22;58749;48.022;10.922;2022-11-04T12:55:43;11.40;99.90
6664;DHT22;58749;48.022;10.922;2022-11-04T12:58:22;11.40;99.90
6664;DHT22;58749;48.022;10.922;2022-11-04T13:00:57;11.40;99.90
6664;DHT22;58749;48.022;10.922;2022-11-04T13:03:32;11.40;99.90
6664;DHT22;58749;48.022;10.922;2022-11-04T13:06:07;11.40;99.90
6664;DHT22;58749;48.022;10.922;2022-11-04T13:08:42;11.40;99.90
6664;DHT22;58749;48.022;10.922;2022-11-04T13:11:17;11.30;99.90
6664;DHT22;58749;48.022;10.922;2022-11-04T13:13:55;11.30;99.90
6664;DHT22;58749;48.022;10.922;2022-11-04T13:16:29;11.30;99.90
6664;DHT22;58749;48.022;10.922;2022-11-04T13:18:59;11.20;99.90
6664;DHT22;58749;48.022;10.922;2022-11-04T13:21:32;11.30;99.90
6664;DHT22;58749;48.022;10.922;2022-11-04T13:24:04;11.30;99.90
6664;DHT22;58749;48.022;10.922;2022-11-04T13:26:33;11.30;99.90
6664;DHT22;58749;48.022;10.922;2022-11-04T13:29:05;11.20;99.90
6664;DHT22;58749;48.022;10.922;2022-11-04T13:31:43;11.20;99.90
6664;DHT22;58749;48.022;10.922;2022-11-04T13:34:21;11.20;99.90
6664;DHT22;58749;48.022;10.922;2022-11-04T13:37:04;11.20;99.90
6664;DHT22;58749;48.022;10.922;2022-11-04T13:39:38;11.20;99.90
6664;DHT22;58749;48.022;10.922;2022-11-04T13:42:25;11.30;99.90
6664;DHT22;58749;48.022;10.922;2022-11-04T13:44:57;11.30;99.90
6664;DHT22;58749;48.022;10.922;2022-11-04T13:47:35;11.30;99.90
6664;DHT22;58749;48.022;10.922;2022-11-04T13:50:05;11.30;99.90
6664;DHT22;58749;48.022;10.922;2022-11-04T13:52:47;11.30;99.90
6664;DHT22;58749;48.022;10.922;2022-11-04T13:55:19;11.40;99.90
6664;DHT22;58749;48.022;10.922;2022-11-04T13:57:51;11.40;99.90
6664;DHT22;58749;48.022;10.922;2022-11-04T14:00:22;11.40;99.90
6664;DHT22;58749;48.022;10.922;2022-11-04T14:02:51;11.40;99.90
6664;DHT22;58749;48.022;10.922;2022-11-04T14:06:01;11.40;99.90
6664;DHT22;58749;48.022;10.922;2022-11-04T14:08:31;11.40;99.90
6664;DHT22;58749;48.022;10.922;2022-11-04T14:11:05;11.30;99.90
6664;DHT22;58749;48.022;10.922;2022-11-04T14:16:43;11.30;99.90
6664;DHT22;58749;48.022;10.922;2022-11-04T14:22:47;11.30;99.90
6664;DHT22;58749;48.022;10.922;2022-11-04T14:25:23;11.20;99.90
6664;DHT22;58749;48.022;10.922;2022-11-04T14:27:54;11.20;99.90
6664;DHT22;58749;48.022;10.922;2022-11-04T14:30:44;11.20;99.90
6664;DHT22;58749;48.022;10.922;2022-11-04T14:33:38;11.20;99.90
6664;DHT22;58749;48.022;10.922;2022-11-04T14:36:22;11.10;99.90
6664;DHT22;58749;48.022;10.922;2022-11-04T14:38:54;11.10;99.90
6664;DHT22;58749;48.022;10.922;2022-11-04T14:41:48;11.10;99.90
6664;DHT22;58749;48.022;10.922;2022-11-04T14:44:19;11.10;99.90
6664;DHT22;58749;48.022;10.922;2022-11-04T14:46:50;11.10;99.90
6664;DHT22;58749;48.022;10.922;2022-11-04T14:49:33;11.10;99.90
6664;DHT22;58749;48.022;10.922;2022-11-04T14:52:04;11.10;99.90
6664;DHT22;58749;48.022;10.922;2022-11-04T14:54:35;11.10;99.90
6664;DHT22;58749;48.022;10.922;2022-11-04T14:57:12;11.10;99.90
6664;DHT22;58749;48.022;10.922;2022-11-04T14:59:41;11.10;99.90
6664;DHT22;58749;48.022;10.922;2022-11-04T15:02:14;11.10;99.90
6664;DHT22;58749;48.022;10.922;2022-11-04T15:04:48;11.10;99.90
6664;DHT22;58749;48.022;10.922;2022-11-04T15:07:31;11.10;99.90
6664;DHT22;58749;48.022;10.922;2022-11-04T15:10:00;11.00;99.90
6664;DHT22;58749;48.022;10.922;2022-11-04T15:12:30;11.00;99.90
6664;DHT22;58749;48.022;10.922;2022-11-04T15:15:31;11.00;99.90
6664;DHT22;58749;48.022;10.922;2022-11-04T15:18:03;11.00;99.90
6664;DHT22;58749;48.022;10.922;2022-11-04T15:20:36;10.90;99.90
6664;DHT22;58749;48.022;10.922;2022-11-04T15:23:05;10.80;99.90
6664;DHT22;58749;48.022;10.922;2022-11-04T15:25:35;10.80;99.90
6664;DHT22;58749;48.022;10.922;2022-11-04T15:28:15;10.70;99.90
6664;DHT22;58749;48.022;10.922;2022-11-04T15:30:59;10.80;99.90
6664;DHT22;58749;48.022;10.922;2022-11-04T15:33:28;10.70;99.90
6664;DHT22;58749;48.022;10.922;2022-11-04T15:35:58;10.60;99.90
6664;DHT22;58749;48.022;10.922;2022-11-04T15:38:26;10.60;99.90
6664;DHT22;58749;48.022;10.922;2022-11-04T15:40:56;10.50;99.90
6664;DHT22;58749;48.022;10.922;2022-11-04T15:43:47;10.40;99.90
6664;DHT22;58749;48.022;10.922;2022-11-04T15:46:17;10.40;99.90
6664;DHT22;58749;48.022;10.922;2022-11-04T15:49:02;10.50;99.90
6664;DHT22;58749;48.022;10.922;2022-11-04T15:51:36;10.40;99.90
6664;DHT22;58749;48.022;10.922;2022-11-04T15:54:14;10.40;99.90
6664;DHT22;58749;48.022;10.922;2022-11-04T15:56:47;10.40;99.90
6664;DHT22;58749;48.022;10.922;2022-11-04T15:59:20;10.40;99.90
6664;DHT22;58749;48.022;10.922;2022-11-04T16:01:50;10.30;99.90
6664;DHT22;58749;48.022;10.922;2022-11-04T16:04:21;10.30;99.90
6664;DHT22;58749;48.022;10.922;2022-11-04T16:07:17;10.30;99.90
6664;DHT22;58749;48.022;10.922;2022-11-04T16:09:49;10.30;99.90
6664;DHT22;58749;48.022;10.922;2022-11-04T16:12:25;10.30;99.90
6664;DHT22;58749;48.022;10.922;2022-11-04T16:14:56;10.30;99.90
6664;DHT22;58749;48.022;10.922;2022-11-04T16:17:26;10.30;99.90
6664;DHT22;58749;48.022;10.922;2022-11-04T16:19:55;10.30;99.90
6664;DHT22;58749;48.022;10.922;2022-11-04T16:22:28;10.30;99.90
6664;DHT22;58749;48.022;10.922;2022-11-04T16:24:58;10.30;99.90
6664;DHT22;58749;48.022;10.922;2022-11-04T16:27:30;10.30;99.90
6664;DHT22;58749;48.022;10.922;2022-11-04T16:30:07;10.30;99.90
6664;DHT22;58749;48.022;10.922;2022-11-04T16:32:41;10.30;99.90
6664;DHT22;58749;48.022;10.922;2022-11-04T16:35:15;10.40;99.90